Time;durP1;ratioP1;P1;durP2;ratioP2;P2;SDS_P1;SDS_P2;PMS_P1;PMS_P2;Temp;Humidity;BMP_temperature;BMP_pressure;BME280_temperature;BME280_humidity;BME280_pressure;Samples;Min_cycle;Max_cycle;Signal;HPM_P1;HPM_P2
2023/05/04 00:01:46;;;;;;;14.80;13.40;;;;;;;8.53;100.00;97435.00;109327;1265;22452;-82
2023/05/04 00:04:17;;;;;;;16.20;14.20;;;;;;;8.52;100.00;97429.98;109253;1266;22537;-82
2023/05/04 00:06:48;;;;;;;16.30;13.40;;;;;;;8.51;100.00;97425.90;109261;1271;22591;-82
2023/05/04 00:09:19;;;;;;;15.40;13.10;;;;;;;8.52;100.00;97428.39;109230;1253;22663;-82
2023/05/04 00:11:50;;;;;;;15.80;13.00;;;;;;;8.53;100.00;97429.09;109403;1266;25419;-82
2023/05/04 00:14:21;;;;;;;14.30;12.80;;;;;;;8.52;100.00;97430.27;109277;1271;26044;-82
2023/05/04 00:16:52;;;;;;;14.10;12.60;;;;;;;8.45;100.00;97431.20;109305;1272;22668;-82
2023/05/04 00:19:23;;;;;;;15.10;13.50;;;;;;;8.38;100.00;97433.44;109302;1262;22548;-82
2023/05/04 00:21:54;;;;;;;16.80;13.20;;;;;;;8.29;100.00;97429.56;109250;1272;22473;-82
2023/05/04 00:24:25;;;;;;;14.30;12.80;;;;;;;8.26;100.00;97428.59;109218;1263;22686;-82
2023/05/04 00:26:56;;;;;;;14.40;12.00;;;;;;;8.26;100.00;97429.43;109252;1272;23028;-82
2023/05/04 00:29:27;;;;;;;13.20;11.80;;;;;;;8.29;100.00;97432.27;109276;1271;25732;-82
2023/05/04 00:31:57;;;;;;;12.80;11.50;;;;;;;8.34;100.00;97431.89;109276;1272;22934;-82
2023/05/04 00:34:28;;;;;;;13.60;11.20;;;;;;;8.36;100.00;97429.17;109275;1266;22496;-82
2023/05/04 00:36:59;;;;;;;12.50;10.60;;;;;;;8.36;100.00;97426.11;109255;1272;24180;-82
2023/05/04 00:39:30;;;;;;;12.90;11.10;;;;;;;8.34;100.00;97422.90;109308;1263;22466;-81
2023/05/04 00:42:01;;;;;;;12.40;9.70;;;;;;;8.31;100.00;97424.70;109329;1266;22552;-82
2023/05/04 00:44:33;;;;;;;12.20;9.70;;;;;;;8.25;100.00;97422.65;109227;1268;22486;-82
2023/05/04 00:47:04;;;;;;;10.50;9.10;;;;;;;8.19;100.00;97418.71;109281;1264;24445;-82
2023/05/04 00:49:36;;;;;;;11.10;8.40;;;;;;;8.11;100.00;97414.31;109305;1251;22529;-82
2023/05/04 00:52:08;;;;;;;11.60;8.30;;;;;;;8.04;100.00;97416.54;109328;1268;23332;-82
2023/05/04 00:54:39;;;;;;;11.70;8.50;;;;;;;7.97;100.00;97411.68;109273;1271;22593;-82
2023/05/04 00:57:10;;;;;;;12.30;8.70;;;;;;;7.93;100.00;97409.25;109231;1272;22518;-81
2023/05/04 00:59:40;;;;;;;10.70;8.40;;;;;;;7.95;100.00;97408.48;109307;1272;22505;-82
2023/05/04 01:02:11;;;;;;;10.60;8.60;;;;;;;8.02;100.00;97408.21;109314;1271;22512;-82
2023/05/04 01:04:43;;;;;;;9.80;8.40;;;;;;;8.06;100.00;97407.06;109230;1269;22644;-82
2023/05/04 01:07:22;;;;;;;11.80;9.10;;;;;;;8.10;100.00;97408.95;109247;1271;22525;-82
2023/05/04 01:09:54;;;;;;;;;;;;;;;8.14;100.00;97406.95;109334;1269;22525;-82
2023/05/04 01:12:33;;;;;;;9.20;7.20;;;;;;;8.17;100.00;97405.84;109265;1269;22569;-82
2023/05/04 01:15:05;;;;;;;10.50;8.50;;;;;;;8.19;100.00;97407.10;109297;1269;22547;-82
2023/05/04 01:17:36;;;;;;;8.90;8.00;;;;;;;8.21;100.00;97404.80;109333;1269;22518;-82
2023/05/04 01:20:10;;;;;;;10.10;8.00;;;;;;;8.22;100.00;97411.52;109230;1271;22511;-82
2023/05/04 01:22:41;;;;;;;11.40;7.60;;;;;;;8.21;100.00;97410.92;109311;1266;22508;-82
2023/05/04 01:25:12;;;;;;;8.20;6.90;;;;;;;8.20;100.00;97408.96;109263;1267;22535;-83
2023/05/04 01:27:55;;;;;;;11.40;7.80;;;;;;;8.23;100.00;97412.27;109303;1272;26006;-83
2023/05/04 01:30:36;;;;;;;8.30;7.30;;;;;;;8.24;100.00;97412.81;109280;1271;22517;-82
2023/05/04 01:33:07;;;;;;;10.70;7.50;;;;;;;8.22;100.00;97415.65;109280;1268;23842;-82
2023/05/04 01:35:39;;;;;;;10.60;7.90;;;;;;;8.22;100.00;97418.34;109290;1269;25414;-82
2023/05/04 01:38:12;;;;;;;10.10;7.80;;;;;;;8.24;100.00;97414.61;109304;1271;22576;-82
2023/05/04 01:40:43;;;;;;;8.90;6.90;;;;;;;8.26;100.00;97413.10;109296;1268;22726;-82
2023/05/04 01:43:16;;;;;;;8.70;7.20;;;;;;;8.28;100.00;97411.91;109400;1268;28333;-82
2023/05/04 01:45:47;;;;;;;8.80;6.80;;;;;;;8.27;100.00;97415.33;109260;1271;22509;-82
2023/05/04 01:48:18;;;;;;;8.90;7.30;;;;;;;8.26;100.00;97417.00;109324;1270;25255;-82
2023/05/04 01:50:49;;;;;;;9.40;7.40;;;;;;;8.25;100.00;97411.66;109343;1264;22526;-82
2023/05/04 01:53:25;;;;;;;8.40;6.80;;;;;;;8.22;100.00;97409.88;109250;1271;27879;-82
2023/05/04 01:55:57;;;;;;;9.80;7.80;;;;;;;8.17;100.00;97411.33;109280;1271;22508;-82
2023/05/04 01:58:29;;;;;;;10.50;8.20;;;;;;;8.04;100.00;97414.85;109280;1266;22746;-82
2023/05/04 02:01:00;;;;;;;11.60;8.70;;;;;;;7.92;100.00;97410.45;109273;1269;25291;-82
2023/05/04 02:03:31;;;;;;;11.00;9.20;;;;;;;7.81;100.00;97406.15;109359;1271;22616;-82
2023/05/04 02:06:02;;;;;;;11.80;9.40;;;;;;;7.71;100.00;97406.00;109309;1268;25227;-82
2023/05/04 02:08:34;;;;;;;15.00;10.20;;;;;;;7.69;100.00;97403.21;109303;1271;22515;-82
2023/05/04 02:11:05;;;;;;;12.80;10.00;;;;;;;7.71;100.00;97405.58;109294;1271;22548;-82
2023/05/04 02:13:36;;;;;;;12.40;8.90;;;;;;;7.70;100.00;97403.98;109298;1266;22567;-83
2023/05/04 02:16:08;;;;;;;8.40;7.50;;;;;;;7.71;100.00;97400.56;109274;1269;22650;-82
2023/05/04 02:18:39;;;;;;;11.20;9.40;;;;;;;7.74;100.00;97400.20;109321;1271;22524;-82
2023/05/04 02:21:10;;;;;;;8.90;7.40;;;;;;;7.77;100.00;97403.36;109126;1272;25252;-82
2023/05/04 02:23:44;;;;;;;8.50;7.60;;;;;;;7.80;100.00;97400.44;109358;1266;22500;-82
2023/05/04 02:26:18;;;;;;;8.80;7.10;;;;;;;7.81;100.00;97401.20;109301;1268;22508;-82
2023/05/04 02:28:53;;;;;;;10.00;6.90;;;;;;;7.80;100.00;97394.16;109322;1266;22640;-82
2023/05/04 02:31:24;;;;;;;8.70;7.00;;;;;;;7.75;100.00;97395.88;109248;1268;22548;-82
2023/05/04 02:33:56;;;;;;;8.30;6.40;;;;;;;7.59;100.00;97390.82;109253;1267;22574;-82
2023/05/04 02:36:27;;;;;;;8.10;6.70;;;;;;;7.46;100.00;97390.88;109282;1267;22507;-82
2023/05/04 02:38:59;;;;;;;7.90;7.00;;;;;;;7.37;100.00;97387.83;109220;1271;22565;-82
2023/05/04 02:41:30;;;;;;;9.20;6.90;;;;;;;7.32;100.00;97390.36;109278;1271;22508;-82
2023/05/04 02:44:01;;;;;;;8.80;6.70;;;;;;;7.29;100.00;97388.88;109243;1267;25414;-82
2023/05/04 02:46:32;;;;;;;9.50;6.60;;;;;;;7.31;100.00;97388.88;109253;1269;23808;-82
2023/05/04 02:49:05;;;;;;;8.70;6.30;;;;;;;7.30;100.00;97384.00;109266;1266;22526;-82
2023/05/04 02:51:41;;;;;;;9.70;6.70;;;;;;;7.27;100.00;97383.37;109262;1269;22685;-82
2023/05/04 02:54:13;;;;;;;7.70;6.60;;;;;;;7.24;100.00;97388.19;107673;1272;2060043;-82
2023/05/04 02:56:44;;;;;;;9.40;7.30;;;;;;;7.26;100.00;97389.63;109108;1273;22560;-82
2023/05/04 02:59:16;;;;;;;10.20;8.10;;;;;;;7.23;100.00;97391.54;109138;1269;22894;-81
2023/05/04 03:01:47;;;;;;;10.50;8.70;;;;;;;7.19;100.00;97391.80;109152;1269;24242;-82
2023/05/04 03:04:21;;;;;;;10.30;8.70;;;;;;;7.20;100.00;97392.34;109216;1268;22533;-82
2023/05/04 03:06:52;;;;;;;11.60;8.60;;;;;;;7.23;100.00;97389.84;109228;1269;22623;-82
2023/05/04 03:09:23;;;;;;;10.40;7.90;;;;;;;7.16;100.00;97394.41;109302;1266;22504;-82
2023/05/04 03:11:56;;;;;;;13.90;10.00;;;;;;;7.06;100.00;97393.24;109363;1266;22539;-82
2023/05/04 03:14:28;;;;;;;13.60;11.40;;;;;;;7.00;100.00;97392.80;109188;1272;25407;-82
2023/05/04 03:17:01;;;;;;;17.40;13.50;;;;;;;6.98;100.00;97389.65;109097;1272;22523;-82
2023/05/04 03:19:32;;;;;;;22.00;16.70;;;;;;;7.02;100.00;97391.15;109146;1270;22518;-82
2023/05/04 03:22:06;;;;;;;20.80;15.60;;;;;;;7.05;100.00;97391.61;109161;1267;22525;-82
2023/05/04 03:24:38;;;;;;;20.60;16.90;;;;;;;7.09;100.00;97391.88;109158;1272;22519;-82
2023/05/04 03:27:09;;;;;;;13.10;9.70;;;;;;;7.14;100.00;97389.09;109174;1269;25404;-82
2023/05/04 03:29:40;;;;;;;14.50;10.90;;;;;;;7.07;100.00;97394.01;109165;1267;23705;-82
2023/05/04 03:32:12;;;;;;;13.90;11.60;;;;;;;6.97;100.00;97386.64;109125;1272;22519;-82
2023/05/04 03:34:44;;;;;;;16.40;12.90;;;;;;;6.95;100.00;97389.77;109138;1269;22549;-82
2023/05/04 03:37:15;;;;;;;14.50;11.20;;;;;;;6.94;100.00;97387.08;109137;1272;22841;-82
2023/05/04 03:39:46;;;;;;;19.00;12.90;;;;;;;6.93;100.00;97386.35;109173;1269;25327;-82
2023/05/04 03:42:18;;;;;;;16.60;12.90;;;;;;;6.94;100.00;97389.02;109150;1269;25284;-81
2023/05/04 03:44:49;;;;;;;18.70;15.20;;;;;;;6.98;100.00;97388.51;109073;1269;24434;-81
2023/05/04 03:47:20;;;;;;;20.10;14.90;;;;;;;7.04;100.00;97389.36;109127;1269;23000;-82
2023/05/04 03:49:51;;;;;;;21.50;17.10;;;;;;;7.08;100.00;97388.02;109094;1272;22730;-82
2023/05/04 03:52:22;;;;;;;21.10;17.50;;;;;;;7.13;100.00;97392.83;109148;1269;22516;-82
2023/05/04 03:54:53;;;;;;;22.10;18.10;;;;;;;7.18;100.00;97395.72;109129;1269;23605;-82
2023/05/04 03:57:24;;;;;;;25.90;18.60;;;;;;;7.22;100.00;97394.85;109147;1273;24215;-82
2023/05/04 03:59:55;;;;;;;23.10;18.40;;;;;;;7.30;100.00;97399.13;109102;1266;22625;-82
2023/05/04 04:02:26;;;;;;;23.80;18.30;;;;;;;7.32;100.00;97399.34;109127;1273;25388;-82
2023/05/04 04:04:57;;;;;;;25.30;20.00;;;;;;;7.27;100.00;97401.04;109159;1269;22471;-82
2023/05/04 04:07:28;;;;;;;30.70;18.30;;;;;;;7.24;100.00;97400.95;109130;1272;22544;-82
2023/05/04 04:09:59;;;;;;;24.60;18.80;;;;;;;7.19;100.00;97401.49;109110;1272;22512;-82
2023/05/04 04:12:30;;;;;;;27.50;17.10;;;;;;;7.17;100.00;97398.59;109069;1272;22510;-82
2023/05/04 04:15:01;;;;;;;27.60;18.80;;;;;;;7.22;100.00;97403.81;109145;1272;22514;-82
2023/05/04 04:17:32;;;;;;;22.90;18.20;;;;;;;7.23;100.00;97402.34;109042;1272;143435;-82
2023/05/04 04:20:03;;;;;;;27.70;17.10;;;;;;;7.23;100.00;97401.73;109162;1273;25907;-82
2023/05/04 04:22:35;;;;;;;33.00;18.30;;;;;;;7.18;100.00;97402.16;109120;1266;22546;-82
2023/05/04 04:25:06;;;;;;;24.70;18.10;;;;;;;7.19;100.00;97403.23;109129;1269;22764;-82
2023/05/04 04:27:39;;;;;;;24.40;18.80;;;;;;;7.27;100.00;97400.30;109117;1272;22511;-82
2023/05/04 04:30:12;;;;;;;29.20;19.00;;;;;;;7.29;100.00;97400.85;109114;1272;22606;-82
2023/05/04 04:32:44;;;;;;;26.90;20.10;;;;;;;7.34;100.00;97403.59;109119;1272;24248;-82
2023/05/04 04:35:15;;;;;;;29.90;20.10;;;;;;;7.41;100.00;97404.66;109142;1273;22514;-82
2023/05/04 04:37:46;;;;;;;31.40;18.70;;;;;;;7.54;100.00;97410.59;109123;1272;22476;-82
2023/05/04 04:40:17;;;;;;;39.60;19.20;;;;;;;7.67;100.00;97411.02;109112;1273;25293;-82
2023/05/04 04:42:48;;;;;;;35.80;18.90;;;;;;;7.77;100.00;97416.61;109135;1272;22556;-82
2023/05/04 04:45:20;;;;;;;29.90;18.20;;;;;;;7.79;100.00;97416.95;109109;1269;22537;-82
2023/05/04 04:47:51;;;;;;;22.80;17.60;;;;;;;7.87;100.00;97413.70;109107;1269;22841;-82
2023/05/04 04:50:22;;;;;;;28.70;19.70;;;;;;;7.95;100.00;97415.25;109151;1251;22458;-82
2023/05/04 04:52:53;;;;;;;30.00;19.10;;;;;;;8.02;100.00;97415.14;109141;1272;23142;-82
2023/05/04 04:55:25;;;;;;;28.10;18.70;;;;;;;8.07;100.00;97422.98;109302;1272;22511;-82
2023/05/04 04:57:56;;;;;;;26.50;18.80;;;;;;;8.06;100.00;97424.23;109309;1270;22592;-82
2023/05/04 05:00:27;;;;;;;29.10;19.50;;;;;;;8.09;100.00;97420.57;109328;1272;22564;-82
2023/05/04 05:02:58;;;;;;;29.50;20.50;;;;;;;8.15;100.00;97420.70;109240;1271;24555;-82
2023/05/04 05:05:29;;;;;;;26.70;19.30;;;;;;;8.22;100.00;97421.02;109199;1264;22531;-82
2023/05/04 05:08:00;;;;;;;27.20;20.00;;;;;;;8.26;100.00;97425.83;109150;1266;22553;-82
2023/05/04 05:10:31;;;;;;;22.80;18.00;;;;;;;8.30;100.00;97422.88;109129;1273;22559;-82
2023/05/04 05:13:03;;;;;;;24.90;18.00;;;;;;;8.43;100.00;97424.83;109098;1273;22690;-82
2023/05/04 05:15:34;;;;;;;26.10;17.80;;;;;;;8.59;100.00;97424.98;109166;1273;22552;-82
2023/05/04 05:18:05;;;;;;;23.20;17.40;;;;;;;8.72;100.00;97425.00;109135;1269;22512;-82
2023/05/04 05:20:37;;;;;;;18.10;15.90;;;;;;;8.81;100.00;97428.80;109097;1272;22523;-82
2023/05/04 05:23:08;;;;;;;18.60;14.90;;;;;;;8.83;100.00;97428.45;109128;1266;22549;-82
2023/05/04 05:25:39;;;;;;;17.90;15.30;;;;;;;8.84;100.00;97430.46;109167;1272;22520;-82
2023/05/04 05:28:10;;;;;;;17.60;14.20;;;;;;;8.87;100.00;97434.88;109111;1270;22512;-82
2023/05/04 05:30:41;;;;;;;24.00;15.20;;;;;;;8.83;100.00;97435.11;109194;1267;22572;-82
2023/05/04 05:33:13;;;;;;;23.60;17.50;;;;;;;8.68;100.00;97436.30;109087;1273;22956;-83
2023/05/04 05:35:47;;;;;;;21.00;15.90;;;;;;;8.67;100.00;97437.98;109144;1267;22518;-82
2023/05/04 05:38:18;;;;;;;18.60;15.70;;;;;;;8.58;100.00;97438.77;109132;1270;22492;-82
2023/05/04 05:40:49;;;;;;;20.30;17.20;;;;;;;8.32;100.00;97441.05;109107;1272;22585;-82
2023/05/04 05:43:21;;;;;;;22.60;17.20;;;;;;;8.16;100.00;97449.78;109128;1272;22752;-82
2023/05/04 05:45:52;;;;;;;20.90;17.10;;;;;;;8.05;100.00;97451.48;109091;1272;22487;-82
2023/05/04 05:48:23;;;;;;;23.30;17.40;;;;;;;8.04;100.00;97448.70;109155;1273;22511;-82
2023/05/04 05:50:54;;;;;;;23.70;17.70;;;;;;;8.11;100.00;97449.70;109143;1266;22528;-82
2023/05/04 05:53:26;;;;;;;22.50;18.90;;;;;;;8.18;100.00;97450.02;109106;1272;22526;-82
2023/05/04 05:56:00;;;;;;;24.90;19.00;;;;;;;8.28;100.00;97447.00;109146;1267;22518;-82
2023/05/04 05:58:31;;;;;;;21.20;16.70;;;;;;;8.25;100.00;97446.38;109109;1273;22507;-82
2023/05/04 06:01:02;;;;;;;22.90;18.00;;;;;;;8.17;100.00;97448.95;109126;1250;22467;-82
2023/05/04 06:03:33;;;;;;;25.90;18.30;;;;;;;8.13;100.00;97448.98;109125;1272;24244;-82
2023/05/04 06:06:04;;;;;;;23.00;18.40;;;;;;;8.15;100.00;97451.44;109167;1265;22518;-82
2023/05/04 06:08:38;;;;;;;24.70;18.70;;;;;;;8.10;100.00;97451.75;109228;1266;22508;-81
2023/05/04 06:11:10;;;;;;;24.20;19.00;;;;;;;8.20;100.00;97452.38;109136;1273;22550;-81
2023/05/04 06:13:45;;;;;;;23.80;18.90;;;;;;;8.28;100.00;97449.42;109084;1269;23004;-81
2023/05/04 06:16:21;;;;;;;23.70;19.20;;;;;;;8.35;100.00;97450.72;109143;1267;22534;-81
2023/05/04 06:18:52;;;;;;;25.60;19.60;;;;;;;8.37;100.00;97453.87;109133;1269;22541;-81
2023/05/04 06:21:28;;;;;;;23.90;18.70;;;;;;;8.54;100.00;97458.06;109131;1273;25517;-81
2023/05/04 06:23:59;;;;;;;23.20;18.00;;;;;;;8.70;100.00;97456.53;109159;1267;23945;-81
2023/05/04 06:26:31;;;;;;;27.20;19.50;;;;;;;8.77;100.00;97457.32;109219;1273;22950;-81
2023/05/04 06:29:02;;;;;;;20.90;17.00;;;;;;;8.86;100.00;97460.60;109175;1273;25261;-81
2023/05/04 06:31:34;;;;;;;23.50;17.80;;;;;;;8.91;100.00;97459.13;109153;1273;23227;-81
2023/05/04 06:34:44;;;;;;;19.30;16.30;;;;;;;8.91;100.00;97460.51;109157;1273;22652;-82
2023/05/04 06:37:16;;;;;;;20.40;17.70;;;;;;;9.02;100.00;97458.88;109241;1267;22547;-81
2023/05/04 06:39:47;;;;;;;19.20;15.40;;;;;;;9.79;100.00;97457.70;109191;1273;25236;-81
2023/05/04 06:42:19;;;;;;;16.60;14.50;;;;;;;11.87;97.04;97456.17;109113;1266;22512;-82
2023/05/04 06:44:51;;;;;;;15.40;13.50;;;;;;;13.97;88.84;97449.23;109145;1251;25924;-81
2023/05/04 06:47:22;;;;;;;15.50;12.30;;;;;;;13.72;86.66;97448.80;109202;1273;22551;-81
2023/05/04 06:49:53;;;;;;;12.90;10.60;;;;;;;12.92;88.09;97456.50;109146;1267;22528;-81
2023/05/04 06:52:24;;;;;;;13.20;11.60;;;;;;;12.35;84.80;97457.77;109211;1265;22684;-80
2023/05/04 06:54:55;;;;;;;13.00;11.30;;;;;;;12.72;91.55;97455.98;109206;1273;22519;-80
2023/05/04 06:57:26;;;;;;;14.70;12.10;;;;;;;14.09;90.78;97448.63;109214;1272;22494;-79
2023/05/04 06:59:57;;;;;;;12.90;11.30;;;;;;;14.24;86.99;97447.95;109211;1267;22545;-79
2023/05/04 07:02:29;;;;;;;13.60;11.80;;;;;;;14.34;87.74;97443.71;109200;1273;22692;-81
2023/05/04 07:05:14;;;;;;;12.30;9.90;;;;;;;16.12;91.81;97435.27;109314;1267;24263;-83
2023/05/04 07:08:01;;;;;;;10.80;9.70;;;;;;;19.92;84.15;97431.01;109279;1271;22868;-82
2023/05/04 07:10:33;;;;;;;9.80;8.10;;;;;;;22.50;72.65;97432.05;109263;1251;22604;-82
2023/05/04 07:13:14;;;;;;;;;;;;;;;23.23;56.31;97434.61;109260;1265;86505;-84
2023/05/04 07:15:46;;;;;;;8.90;8.00;;;;;;;23.98;59.63;97437.41;109337;1267;22541;-83
2023/05/04 07:18:29;;;;;;;9.50;8.50;;;;;;;25.71;59.32;97435.70;109273;1271;25401;-83
2023/05/04 07:21:01;;;;;;;7.80;7.10;;;;;;;26.42;50.17;97436.66;109305;1268;24209;-81
2023/05/04 07:23:34;;;;;;;7.40;6.70;;;;;;;26.84;49.42;97430.52;109248;1272;65352;-83
2023/05/04 07:26:10;;;;;;;8.10;7.30;;;;;;;27.48;46.50;97428.30;109351;1271;22512;-83
2023/05/04 07:28:46;;;;;;;7.90;7.10;;;;;;;27.49;41.33;97432.13;109249;1272;22541;-83
2023/05/04 07:31:18;;;;;;;9.50;7.70;;;;;;;27.82;45.91;97435.91;109279;1267;22527;-83
2023/05/04 07:33:53;;;;;;;8.30;7.50;;;;;;;29.31;47.96;97429.60;109292;1272;65035;-83
2023/05/04 07:36:36;;;;;;;8.00;7.30;;;;;;;31.33;48.11;97428.45;109369;1271;22518;-83
2023/05/04 07:39:08;;;;;;;8.20;7.10;;;;;;;32.90;46.25;97419.66;109268;1264;22170;-84
2023/05/04 07:41:40;;;;;;;7.70;7.00;;;;;;;33.93;44.27;97417.52;109293;1272;24913;-84
2023/05/04 07:44:11;;;;;;;7.50;6.70;;;;;;;33.87;37.44;97419.71;109249;1272;62767;-84
2023/05/04 07:46:42;;;;;;;6.40;5.90;;;;;;;34.33;40.81;97417.63;109296;1272;22491;-84
2023/05/04 07:49:13;;;;;;;6.60;6.00;;;;;;;35.08;39.35;97422.54;109306;1264;23846;-84
2023/05/04 07:51:47;;;;;;;7.20;6.30;;;;;;;34.69;34.17;97421.73;109350;1247;22553;-84
2023/05/04 07:54:19;;;;;;;6.10;5.60;;;;;;;33.74;27.79;97417.34;109276;1263;22532;-84
2023/05/04 07:56:50;;;;;;;5.50;5.00;;;;;;;33.43;30.24;97416.13;109311;1271;22514;-84
2023/05/04 07:59:21;;;;;;;6.50;5.80;;;;;;;32.25;25.51;97418.27;109324;1264;25409;-84
2023/05/04 08:01:53;;;;;;;6.50;5.90;;;;;;;30.97;29.57;97421.96;109367;1271;24276;-84
2023/05/04 08:04:24;;;;;;;6.00;5.50;;;;;;;32.36;33.18;97417.64;109339;1271;22516;-84
2023/05/04 08:06:58;;;;;;;6.30;5.70;;;;;;;34.04;33.43;97420.43;109370;1272;23536;-84
2023/05/04 08:09:29;;;;;;;5.40;4.90;;;;;;;35.10;30.23;97421.31;109313;1272;22683;-84
2023/05/04 08:12:03;;;;;;;5.60;5.10;;;;;;;34.40;23.75;97419.28;109275;1264;24244;-85
2023/05/04 08:14:34;;;;;;;6.80;5.90;;;;;;;31.78;23.90;97420.09;109261;1264;25230;-84
2023/05/04 08:17:05;;;;;;;6.50;5.90;;;;;;;31.03;28.22;97421.86;109349;1271;22533;-84
2023/05/04 08:19:36;;;;;;;6.20;5.70;;;;;;;31.28;25.49;97423.11;109293;1264;22490;-84
2023/05/04 08:22:07;;;;;;;7.20;5.70;;;;;;;30.67;27.10;97420.79;109344;1264;23784;-84
2023/05/04 08:24:38;;;;;;;5.20;4.70;;;;;;;31.03;24.56;97421.80;109281;1272;23038;-84
2023/05/04 08:27:12;;;;;;;4.90;4.00;;;;;;;29.37;26.35;97413.35;109351;1269;22847;-84
2023/05/04 08:29:43;;;;;;;4.90;4.40;;;;;;;30.87;29.75;97417.42;109319;1266;25431;-83
2023/05/04 08:32:17;;;;;;;5.00;4.50;;;;;;;32.86;29.40;97412.77;109320;1271;22459;-85
2023/05/04 08:34:50;;;;;;;4.40;3.90;;;;;;;33.83;29.03;97418.73;109293;1271;22772;-85
2023/05/04 08:37:21;;;;;;;4.80;4.10;;;;;;;31.94;27.65;97417.00;109319;1271;22472;-85
2023/05/04 08:39:52;;;;;;;5.00;4.50;;;;;;;30.76;22.52;97423.54;109362;1264;22547;-85
2023/05/04 08:42:33;;;;;;;5.50;5.00;;;;;;;27.71;25.53;97417.23;109298;1267;22800;-85
2023/05/04 08:45:10;;;;;;;7.40;5.30;;;;;;;28.48;28.74;97416.85;109244;1272;22558;-85
2023/05/04 08:47:42;;;;;;;6.10;5.00;;;;;;;30.21;30.05;97415.58;109302;1271;22470;-84
2023/05/04 08:50:14;;;;;;;5.90;5.10;;;;;;;30.54;29.28;97419.73;109352;1269;24326;-85
2023/05/04 08:52:48;;;;;;;5.80;5.30;;;;;;;28.49;29.71;97418.86;109342;1272;23178;-82
2023/05/04 08:55:20;;;;;;;6.60;5.70;;;;;;;27.34;31.25;97418.39;109324;1272;23526;-81
2023/05/04 08:57:52;;;;;;;6.10;5.50;;;;;;;29.08;31.28;97416.80;109379;1271;22512;-82
2023/05/04 09:00:24;;;;;;;6.40;5.30;;;;;;;30.38;30.28;97422.52;109353;1264;22508;-82
2023/05/04 09:02:58;;;;;;;5.20;4.30;;;;;;;28.62;29.41;97418.02;109293;1271;22522;-83
2023/05/04 09:05:30;;;;;;;8.40;5.50;;;;;;;27.36;31.73;97417.95;109252;1269;22588;-84
2023/05/04 09:08:01;;;;;;;6.40;4.80;;;;;;;28.47;31.76;97418.19;109211;1250;22522;-84
2023/05/04 09:10:33;;;;;;;6.70;4.90;;;;;;;28.42;30.48;97415.56;109154;1267;22657;-84
2023/05/04 09:13:04;;;;;;;6.20;4.50;;;;;;;27.56;30.70;97418.30;109187;1269;22569;-83
2023/05/04 09:15:35;;;;;;;7.20;4.90;;;;;;;25.77;31.04;97419.11;109213;1254;22633;-84
2023/05/04 09:18:08;;;;;;;8.10;5.20;;;;;;;24.00;31.39;97414.16;109198;1270;22515;-84
2023/05/04 09:20:47;;;;;;;7.70;4.90;;;;;;;22.88;32.90;97411.48;109176;1250;22653;-84
2023/05/04 09:23:19;;;;;;;6.20;4.90;;;;;;;21.59;32.55;97413.27;109173;1267;22519;-84
2023/05/04 09:25:52;;;;;;;5.90;4.60;;;;;;;20.36;34.85;97411.08;109192;1266;22629;-84
2023/05/04 09:28:38;;;;;;;8.20;4.90;;;;;;;20.17;36.44;97409.26;109162;1273;22956;-83
2023/05/04 09:31:13;;;;;;;5.40;4.30;;;;;;;20.29;37.21;97403.83;109389;1272;22615;-84
2023/05/04 09:33:49;;;;;;;6.60;4.60;;;;;;;20.03;36.71;97400.58;109173;1269;22546;-83
2023/05/04 09:36:23;;;;;;;5.70;4.30;;;;;;;19.21;36.50;97399.63;109204;1265;22519;-84
2023/05/04 09:38:55;;;;;;;5.00;4.20;;;;;;;17.80;37.79;97402.63;109217;1272;22532;-82
2023/05/04 09:41:34;;;;;;;5.30;4.50;;;;;;;16.87;38.61;97404.95;109246;1249;22532;-83
2023/05/04 09:44:22;;;;;;;6.40;4.50;;;;;;;17.13;40.55;97405.58;109347;1269;22553;-83
2023/05/04 09:47:01;;;;;;;7.00;4.80;;;;;;;17.72;40.30;97406.61;109180;1261;22534;-83
2023/05/04 09:49:42;;;;;;;7.60;5.20;;;;;;;17.57;40.77;97408.05;109220;1273;22494;-82
2023/05/04 09:52:19;;;;;;;7.50;5.70;;;;;;;17.52;40.64;97408.66;109201;1270;22546;-84
2023/05/04 09:55:01;;;;;;;7.40;5.60;;;;;;;17.45;40.39;97409.39;107828;1266;1783047;-85
2023/05/04 09:57:41;;;;;;;8.20;5.20;;;;;;;17.41;40.58;97412.59;109173;1272;22960;-85
2023/05/04 10:00:17;;;;;;;7.10;5.30;;;;;;;17.45;41.45;97408.95;109148;1269;22534;-84
2023/05/04 10:02:54;;;;;;;6.50;4.90;;;;;;;17.18;40.19;97406.83;109163;1266;22527;-85
2023/05/04 10:05:35;;;;;;;6.90;4.90;;;;;;;16.82;40.83;97406.98;109216;1272;99799;-82
2023/05/04 10:08:10;;;;;;;9.40;6.70;;;;;;;16.86;42.64;97402.08;109173;1266;22562;-83
2023/05/04 10:10:48;;;;;;;10.50;7.30;;;;;;;17.38;43.37;97395.17;109197;1273;22547;-83
2023/05/04 10:13:23;;;;;;;10.70;7.30;;;;;;;17.68;43.55;97386.34;109130;1266;77904;-83
2023/05/04 10:16:09;;;;;;;10.30;7.40;;;;;;;17.42;42.84;97390.53;109185;1259;25529;-83
2023/05/04 10:19:26;;;;;;;8.50;6.70;;;;;;;17.02;43.67;97394.58;109197;1266;23220;-84
2023/05/04 10:22:12;;;;;;;8.10;5.90;;;;;;;16.71;43.22;97396.05;109208;1272;22582;-81
2023/05/04 10:25:10;;;;;;;8.40;6.30;;;;;;;15.94;43.30;97392.46;109097;1250;27121;-82
2023/05/04 10:27:50;;;;;;;8.10;6.50;;;;;;;15.80;44.38;97385.69;109211;1269;24199;-84
2023/05/04 10:30:21;;;;;;;7.70;6.20;;;;;;;16.01;45.19;97382.02;109118;1266;22525;-82
2023/05/04 10:33:01;;;;;;;8.70;6.50;;;;;;;16.15;45.77;97382.20;109325;1272;22518;-84
2023/05/04 10:35:31;;;;;;;9.50;6.10;;;;;;;16.01;44.87;97378.55;109447;1266;22565;-84
2023/05/04 10:38:03;;;;;;;7.10;5.00;;;;;;;15.78;44.97;97379.91;109299;1270;22511;-84
2023/05/04 10:40:41;;;;;;;9.10;6.50;;;;;;;15.70;45.00;97377.84;109540;1264;22507;-83
2023/05/04 10:43:23;;;;;;;9.30;6.20;;;;;;;15.64;45.64;97376.07;109718;1268;22536;-83
2023/05/04 10:45:56;;;;;;;8.10;5.90;;;;;;;15.60;45.71;97373.55;109257;1272;22464;-83
2023/05/04 10:48:36;;;;;;;12.10;7.00;;;;;;;15.45;45.41;97369.90;109192;1272;22535;-84
2023/05/04 10:51:20;;;;;;;8.50;6.90;;;;;;;15.51;46.62;97367.90;109162;1265;22518;-83
2023/05/04 10:53:51;;;;;;;7.50;5.90;;;;;;;16.12;46.99;97367.12;109159;1253;24126;-81
2023/05/04 10:56:24;;;;;;;9.60;6.40;;;;;;;16.33;44.91;97365.61;109175;1273;22948;-81
2023/05/04 10:58:55;;;;;;;9.40;6.00;;;;;;;16.11;45.41;97363.65;109183;1273;24318;-81
2023/05/04 11:01:28;;;;;;;7.50;5.70;;;;;;;16.07;46.01;97362.35;109144;1272;22460;-81
2023/05/04 11:04:00;;;;;;;9.50;6.50;;;;;;;15.88;44.94;97362.66;109158;1266;24378;-81
2023/05/04 11:06:35;;;;;;;7.70;6.00;;;;;;;15.73;45.82;97365.59;109172;1266;22536;-81
2023/05/04 11:09:09;;;;;;;7.20;5.30;;;;;;;16.08;46.83;97366.11;109205;1273;22547;-81
2023/05/04 11:11:40;;;;;;;9.50;6.50;;;;;;;16.51;47.12;97361.16;109137;1270;22526;-81
2023/05/04 11:14:20;;;;;;;8.40;6.10;;;;;;;16.67;45.96;97361.70;109147;1266;22554;-82
2023/05/04 11:16:51;;;;;;;10.10;6.50;;;;;;;16.34;45.11;97359.85;109148;1266;22579;-82
2023/05/04 11:19:22;;;;;;;8.50;6.60;;;;;;;15.74;45.55;97354.88;109110;1272;22830;-81
2023/05/04 11:21:53;;;;;;;8.50;6.50;;;;;;;15.55;46.10;97348.15;109095;1270;22707;-81
2023/05/04 11:24:25;;;;;;;8.10;6.40;;;;;;;15.49;47.04;97346.48;109237;1271;22486;-81
2023/05/04 11:26:56;;;;;;;9.70;6.20;;;;;;;15.77;47.01;97342.59;109315;1271;22500;-81
2023/05/04 11:29:28;;;;;;;6.70;5.60;;;;;;;16.00;47.32;97342.14;109213;1271;22660;-81
2023/05/04 11:32:02;;;;;;;8.10;5.60;;;;;;;16.26;46.24;97346.95;109266;1271;25277;-82
2023/05/04 11:34:33;;;;;;;8.40;6.10;;;;;;;16.46;46.44;97339.56;109275;1264;25287;-81
2023/05/04 11:37:06;;;;;;;7.50;5.10;;;;;;;16.61;46.29;97333.75;109301;1272;22611;-81
2023/05/04 11:39:37;;;;;;;8.10;5.70;;;;;;;16.61;44.88;97339.59;109358;1271;25453;-81
2023/05/04 11:42:10;;;;;;;7.60;4.90;;;;;;;16.61;45.43;97335.89;109271;1271;24152;-83
2023/05/04 11:44:42;;;;;;;7.50;5.60;;;;;;;16.91;46.16;97329.35;109208;1266;22550;-82
2023/05/04 11:47:13;;;;;;;7.90;5.00;;;;;;;17.24;45.47;97320.58;109330;1268;22464;-82